createdAt,value
2024-02-20T00:01:07.508Z,2.67
2024-02-20T00:03:34.242Z,3.35
2024-02-20T00:06:00.833Z,3.45
2024-02-20T00:08:27.336Z,3.13
2024-02-20T00:10:54.026Z,3.53
2024-02-20T00:13:20.857Z,3.95
2024-02-20T00:15:47.508Z,3.92
2024-02-20T00:18:14.128Z,3.50
2024-02-20T00:20:44.092Z,4.13
2024-02-20T00:23:14.817Z,4.07
2024-02-20T00:25:47.138Z,3.60
2024-02-20T00:28:13.990Z,3.53
2024-02-20T00:30:40.716Z,3.47
2024-02-20T00:33:07.354Z,2.42
2024-02-20T00:35:34.635Z,2.10
2024-02-20T00:38:01.787Z,2.47
2024-02-20T00:40:28.641Z,2.55
2024-02-20T00:42:55.351Z,3.17
2024-02-20T00:45:21.915Z,2.70
2024-02-20T00:47:48.472Z,2.03
2024-02-20T00:50:17.301Z,2.05
2024-02-20T00:52:43.952Z,2.63
2024-02-20T00:55:10.661Z,1.85
2024-02-20T00:57:37.421Z,2.58
2024-02-20T01:00:05.055Z,3.05
2024-02-20T01:02:31.646Z,2.75
2024-02-20T01:04:58.242Z,3.05
2024-02-20T01:07:25.990Z,3.15
2024-02-20T01:09:52.973Z,2.47
2024-02-20T01:12:19.692Z,2.85
2024-02-20T01:14:46.695Z,3.38
2024-02-20T01:17:13.354Z,2.42
2024-02-20T01:19:40.020Z,3.42
2024-02-20T01:22:07.404Z,2.63
2024-02-20T01:24:34.079Z,3.15
2024-02-20T01:27:00.633Z,3.30
2024-02-20T01:29:27.259Z,2.78
2024-02-20T01:31:54.394Z,2.65
2024-02-20T01:34:21.338Z,3.45
2024-02-20T01:36:47.978Z,3.00
2024-02-20T01:39:14.608Z,3.30
2024-02-20T01:41:41.283Z,2.85
2024-02-20T01:44:07.814Z,3.33
2024-02-20T01:46:35.032Z,2.45
2024-02-20T01:49:02.991Z,2.65
2024-02-20T01:51:33.686Z,3.15
2024-02-20T01:54:00.469Z,2.35
2024-02-20T01:56:27.343Z,2.88
2024-02-20T01:58:54.127Z,2.63
2024-02-20T02:01:24.185Z,2.45
2024-02-20T02:03:50.949Z,2.97
2024-02-20T02:06:17.691Z,2.38
2024-02-20T02:08:44.335Z,2.67
2024-02-20T02:11:10.917Z,4.00
2024-02-20T02:13:37.544Z,2.60
2024-02-20T02:16:04.522Z,2.75
2024-02-20T02:18:31.162Z,3.03
2024-02-20T02:20:57.767Z,2.97
2024-02-20T02:23:24.290Z,3.00
2024-02-20T02:25:50.814Z,2.50
2024-02-20T02:28:17.390Z,3.30
2024-02-20T02:30:44.390Z,2.13
2024-02-20T02:33:11.327Z,3.08
2024-02-20T02:35:37.943Z,2.38
2024-02-20T02:38:04.650Z,2.30
2024-02-20T02:40:31.289Z,2.63
2024-02-20T02:42:58.148Z,2.38
2024-02-20T02:45:24.930Z,2.95
2024-02-20T02:47:53.366Z,3.40
2024-02-20T02:50:20.182Z,3.30
2024-02-20T02:52:46.896Z,3.10
2024-02-20T02:55:13.533Z,3.42
2024-02-20T02:57:40.932Z,3.03
2024-02-20T03:00:12.292Z,3.00
2024-02-20T03:02:39.130Z,2.58
2024-02-20T03:05:06.463Z,2.90
2024-02-20T03:07:34.284Z,2.90
2024-02-20T03:10:01.242Z,2.90
2024-02-20T03:12:27.827Z,2.78
2024-02-20T03:14:55.412Z,2.42
2024-02-20T03:17:22.106Z,2.90
2024-02-20T03:19:48.724Z,2.60
2024-02-20T03:22:16.447Z,3.30
2024-02-20T03:24:44.215Z,2.67
2024-02-20T03:27:11.941Z,3.08
2024-02-20T03:29:38.591Z,3.05
2024-02-20T03:32:05.873Z,3.10
2024-02-20T03:34:32.480Z,3.38
2024-02-20T03:36:59.076Z,3.30
2024-02-20T03:39:25.682Z,4.50
2024-02-20T03:41:52.239Z,4.30
2024-02-20T03:44:18.851Z,4.40
2024-02-20T03:46:45.828Z,3.60
2024-02-20T03:49:13.723Z,4.00
2024-02-20T03:51:40.367Z,5.03
2024-02-20T03:54:06.918Z,4.57
2024-02-20T03:56:33.444Z,4.32
2024-02-20T03:58:59.967Z,3.95
2024-02-20T04:01:27.029Z,3.45
2024-02-20T04:03:53.785Z,3.00
2024-02-20T04:06:20.709Z,3.40
2024-02-20T04:08:47.388Z,3.15
2024-02-20T04:11:13.915Z,2.70
2024-02-20T04:13:40.521Z,2.70
2024-02-20T04:16:07.548Z,3.63
2024-02-20T04:18:34.116Z,2.92
2024-02-20T04:21:00.768Z,3.00
2024-02-20T04:23:27.646Z,3.53
2024-02-20T04:25:54.233Z,2.60
2024-02-20T04:28:21.032Z,2.40
2024-02-20T04:30:47.565Z,2.97
2024-02-20T04:33:14.259Z,3.05
2024-02-20T04:35:41.090Z,3.33
2024-02-20T04:38:07.662Z,2.95
2024-02-20T04:40:34.197Z,3.05
2024-02-20T04:43:01.004Z,3.67
2024-02-20T04:45:27.671Z,2.38
2024-02-20T04:47:55.104Z,2.63
2024-02-20T04:50:21.913Z,2.70
2024-02-20T04:52:48.512Z,2.50
2024-02-20T04:55:15.373Z,2.45
2024-02-20T04:57:41.935Z,3.25
2024-02-20T05:00:12.258Z,3.13
2024-02-20T05:02:39.525Z,2.97
2024-02-20T05:05:06.478Z,2.80
2024-02-20T05:07:33.413Z,2.05
2024-02-20T05:10:00.125Z,2.10
2024-02-20T05:12:26.753Z,2.63
2024-02-20T05:14:53.388Z,2.47
2024-02-20T05:17:19.942Z,2.60
2024-02-20T05:19:46.559Z,2.67
2024-02-20T05:22:14.934Z,2.20
2024-02-20T05:24:43.927Z,2.97
2024-02-20T05:27:10.589Z,2.63
2024-02-20T05:29:37.207Z,2.35
2024-02-20T05:32:03.931Z,2.65
2024-02-20T05:34:30.629Z,2.80
2024-02-20T05:36:57.244Z,2.05
2024-02-20T05:39:23.787Z,3.13
2024-02-20T05:41:50.329Z,3.35
2024-02-20T05:44:18.283Z,2.50
2024-02-20T05:46:45.637Z,2.60
2024-02-20T05:49:12.441Z,2.88
2024-02-20T05:51:39.061Z,2.85
2024-02-20T05:54:07.000Z,3.40
2024-02-20T05:56:33.632Z,2.50
2024-02-20T05:59:00.201Z,2.95
2024-02-20T06:01:26.871Z,2.42
2024-02-20T06:03:53.629Z,2.47
2024-02-20T06:06:20.247Z,2.95
2024-02-20T06:08:47.441Z,2.60
2024-02-20T06:11:19.152Z,3.08
2024-02-20T06:13:46.832Z,2.30
2024-02-20T06:16:13.892Z,3.08
2024-02-20T06:18:40.960Z,2.92
2024-02-20T06:21:11.194Z,2.25
2024-02-20T06:23:38.845Z,2.67
2024-02-20T06:26:12.328Z,3.20
2024-02-20T06:28:41.238Z,2.67
2024-02-20T06:31:08.761Z,3.15
2024-02-20T06:33:35.916Z,2.95
2024-02-20T06:36:02.609Z,3.05
2024-02-20T06:38:32.989Z,3.30
2024-02-20T06:41:03.527Z,3.10
2024-02-20T06:43:30.961Z,3.13
2024-02-20T06:45:57.871Z,2.60
2024-02-20T06:48:24.711Z,2.40
2024-02-20T06:50:53.440Z,2.28
2024-02-20T06:53:20.335Z,3.33
2024-02-20T06:55:47.267Z,3.03
2024-02-20T06:58:13.999Z,2.80
2024-02-20T07:00:45.055Z,3.10
2024-02-20T07:03:11.805Z,3.60
2024-02-20T07:05:38.820Z,3.20
2024-02-20T07:08:05.828Z,2.75
2024-02-20T07:10:32.466Z,3.08
2024-02-20T07:12:59.386Z,3.50
2024-02-20T07:15:26.335Z,3.22
2024-02-20T07:17:53.031Z,2.42
2024-02-20T07:20:19.947Z,2.83
2024-02-20T07:22:51.011Z,2.88
2024-02-20T07:25:21.037Z,3.67
2024-02-20T07:27:48.202Z,3.10
2024-02-20T07:30:15.648Z,2.15
2024-02-20T07:32:43.559Z,2.92
2024-02-20T07:35:11.760Z,2.92
2024-02-20T07:37:39.950Z,4.15
2024-02-20T07:40:07.817Z,3.65
2024-02-20T07:42:35.127Z,3.35
2024-02-20T07:45:01.842Z,3.38
2024-02-20T07:47:28.452Z,2.95
2024-02-20T07:49:55.332Z,3.90
2024-02-20T07:52:22.053Z,3.40
2024-02-20T07:54:48.804Z,3.28
2024-02-20T07:57:15.416Z,3.75
2024-02-20T07:59:42.032Z,5.05
2024-02-20T08:02:10.509Z,4.30
2024-02-20T08:04:38.934Z,5.00
2024-02-20T08:07:05.866Z,4.60
2024-02-20T08:09:32.729Z,5.18
2024-02-20T08:11:59.387Z,4.63
2024-02-20T08:14:26.919Z,4.18
2024-02-20T08:16:53.663Z,4.70
2024-02-20T08:19:20.533Z,5.15
2024-02-20T08:21:47.198Z,4.90
2024-02-20T08:24:13.963Z,5.60
2024-02-20T08:26:40.638Z,4.78
2024-02-20T08:29:09.503Z,5.40
2024-02-20T08:31:36.209Z,5.45
2024-02-20T08:34:02.970Z,5.13
2024-02-20T08:36:31.303Z,4.72
2024-02-20T08:38:58.111Z,4.47
2024-02-20T08:41:24.842Z,5.03
2024-02-20T08:43:52.414Z,6.00
2024-02-20T08:46:19.411Z,5.15
2024-02-20T08:48:46.958Z,5.85
2024-02-20T08:51:15.671Z,5.00
2024-02-20T08:53:42.360Z,5.68
2024-02-20T08:56:08.969Z,4.85
2024-02-20T08:58:35.602Z,4.93
2024-02-20T09:01:02.947Z,6.25
2024-02-20T09:03:31.065Z,5.82
2024-02-20T09:05:57.939Z,5.85
2024-02-20T09:08:24.798Z,6.05
2024-02-20T09:10:52.272Z,5.47
2024-02-20T09:13:41.373Z,5.78
2024-02-20T09:20:13.018Z,5.47
2024-02-20T09:22:40.111Z,5.18
2024-02-20T09:25:07.897Z,5.05
2024-02-20T09:27:35.761Z,6.13
2024-02-20T09:30:55.264Z,6.03
2024-02-20T09:41:51.953Z,5.47
2024-02-20T09:44:30.983Z,6.57
2024-02-20T09:46:58.177Z,6.07
2024-02-20T09:49:25.132Z,6.10
2024-02-20T09:51:51.975Z,6.35
2024-02-20T09:54:18.557Z,6.18
2024-02-20T09:56:46.492Z,6.05
2024-02-20T09:59:13.302Z,7.00
2024-02-20T10:01:40.176Z,6.38
2024-02-20T10:04:09.888Z,6.35
2024-02-20T10:06:36.955Z,6.18
2024-02-20T10:09:03.782Z,6.20
2024-02-20T10:11:35.669Z,6.68
2024-02-20T10:14:03.529Z,6.72
2024-02-20T10:16:30.439Z,7.07
2024-02-20T10:19:05.794Z,7.57
2024-02-20T10:21:32.710Z,7.65
2024-02-20T10:24:14.176Z,6.47
2024-02-20T10:26:48.033Z,7.22
2024-02-20T10:29:15.171Z,6.38
2024-02-20T10:31:41.913Z,7.18
2024-02-20T10:34:14.379Z,7.93
2024-02-20T10:36:42.189Z,7.90
2024-02-20T10:39:12.804Z,8.32
2024-02-20T10:41:40.433Z,7.40
2024-02-20T10:44:08.179Z,7.57
2024-02-20T10:46:40.031Z,8.07
2024-02-20T10:49:19.780Z,8.93
2024-02-20T10:51:48.159Z,8.68
2024-02-20T10:54:19.157Z,8.10
2024-02-20T10:56:46.982Z,8.93
2024-02-20T10:59:16.580Z,9.32
2024-02-20T11:01:43.504Z,9.30
2024-02-20T11:04:15.372Z,7.22
2024-02-20T11:06:44.400Z,8.00
2024-02-20T11:09:12.384Z,9.68
2024-02-20T11:11:39.208Z,8.43
2024-02-20T11:14:07.766Z,8.68
2024-02-20T11:16:35.813Z,6.28
2024-02-20T11:19:03.093Z,9.57
2024-02-20T11:21:31.660Z,9.10
2024-02-20T11:24:09.501Z,7.45
2024-02-20T11:26:36.087Z,8.98
2024-02-20T11:29:02.700Z,7.47
2024-02-20T11:31:30.127Z,6.05
2024-02-20T11:33:58.123Z,7.65
2024-02-20T11:36:25.030Z,9.25
2024-02-20T11:39:01.877Z,7.55
2024-02-20T11:41:29.425Z,7.75
2024-02-20T11:44:06.222Z,6.88
2024-02-20T11:46:35.174Z,6.93
2024-02-20T11:51:33.659Z,4.68
2024-02-20T11:54:07.455Z,6.63
2024-02-20T11:56:34.669Z,7.57
2024-02-20T11:59:02.940Z,7.38
2024-02-20T12:01:31.205Z,6.40
2024-02-20T12:04:05.476Z,6.63
2024-02-20T12:06:33.492Z,7.03
2024-02-20T12:09:00.149Z,6.80
2024-02-20T12:11:31.302Z,6.35
2024-02-20T12:14:04.356Z,6.60
2024-02-20T12:16:31.736Z,6.93
2024-02-20T12:21:30.203Z,7.38
2024-02-20T12:23:58.408Z,6.68
2024-02-20T12:26:27.078Z,5.57
2024-02-20T12:28:55.842Z,6.70
2024-02-20T12:31:30.164Z,6.63
2024-02-20T12:33:58.473Z,6.07
2024-02-20T12:36:28.093Z,6.68
2024-02-20T12:38:55.036Z,6.28
2024-02-20T12:41:21.607Z,4.90
2024-02-20T12:43:48.418Z,5.80
2024-02-20T12:46:15.187Z,5.40
2024-02-20T12:48:42.735Z,5.95
2024-02-20T12:51:10.996Z,5.65
2024-02-20T12:53:39.627Z,3.70
2024-02-20T12:56:08.513Z,4.80
2024-02-20T12:58:35.287Z,5.10
2024-02-20T13:01:01.949Z,4.20
2024-02-20T13:03:28.654Z,4.60
2024-02-20T13:05:55.435Z,4.75
2024-02-20T13:08:22.148Z,3.55
2024-02-20T13:10:49.147Z,3.88
2024-02-20T13:13:16.004Z,4.07
2024-02-20T13:15:42.592Z,4.43
2024-02-20T13:18:09.285Z,3.90
2024-02-20T13:20:35.928Z,3.53
2024-02-20T13:23:15.298Z,3.60
2024-02-20T13:25:42.067Z,4.07
2024-02-20T13:28:12.308Z,3.53
2024-02-20T13:30:39.324Z,2.75
2024-02-20T13:33:06.262Z,3.17
2024-02-20T13:35:33.296Z,3.47
2024-02-20T13:38:00.101Z,3.95
2024-02-20T13:40:26.999Z,3.10
2024-02-20T13:42:55.409Z,4.05
2024-02-20T13:45:23.728Z,3.28
2024-02-20T13:47:50.593Z,3.03
2024-02-20T13:50:17.480Z,3.15
2024-02-20T13:52:44.284Z,3.92
2024-02-20T13:55:12.502Z,3.60
2024-02-20T13:57:39.213Z,3.70
2024-02-20T14:00:08.464Z,3.40
2024-02-20T14:02:35.297Z,3.17
2024-02-20T14:05:02.281Z,4.28
2024-02-20T14:07:30.175Z,3.40
2024-02-20T14:09:56.735Z,3.35
2024-02-20T14:12:25.156Z,3.33
2024-02-20T14:14:53.051Z,3.35
2024-02-20T14:17:21.432Z,3.00
2024-02-20T14:19:48.128Z,3.10
2024-02-20T14:22:15.343Z,2.95
2024-02-20T14:24:41.970Z,3.50
2024-02-20T14:27:08.568Z,3.03
2024-02-20T14:29:37.171Z,3.17
2024-02-20T14:32:04.270Z,2.80
2024-02-20T14:34:31.335Z,2.95
2024-02-20T14:36:58.043Z,3.17
2024-02-20T14:39:24.800Z,2.80
2024-02-20T14:41:51.780Z,2.80
2024-02-20T14:44:18.589Z,2.55
2024-02-20T14:46:48.410Z,2.25
2024-02-20T14:49:15.713Z,2.75
2024-02-20T14:51:42.941Z,3.53
2024-02-20T14:54:09.719Z,2.80
2024-02-20T14:56:37.239Z,2.45
2024-02-20T14:59:09.946Z,3.10
2024-02-20T15:01:37.709Z,2.55
2024-02-20T15:04:05.160Z,2.88
2024-02-20T15:06:32.140Z,2.53
2024-02-20T15:08:59.329Z,2.58
2024-02-20T15:11:26.404Z,2.10
2024-02-20T15:13:54.343Z,2.47
2024-02-20T15:16:21.074Z,1.33
2024-02-20T15:18:48.028Z,2.08
2024-02-20T15:21:14.640Z,2.50
2024-02-20T15:23:41.223Z,2.20
2024-02-20T15:26:08.393Z,2.35
2024-02-20T15:28:35.630Z,2.97
2024-02-20T15:31:02.971Z,2.78
2024-02-20T15:33:30.174Z,2.15
2024-02-20T15:35:57.051Z,2.63
2024-02-20T15:38:24.252Z,2.30
2024-02-20T15:40:51.061Z,2.25
2024-02-20T15:43:18.551Z,2.50
2024-02-20T15:45:45.879Z,2.15
2024-02-20T15:48:13.619Z,2.00
2024-02-20T15:50:45.307Z,1.98
2024-02-20T15:53:17.200Z,2.22
2024-02-20T15:55:45.892Z,2.08
2024-02-20T15:58:16.124Z,1.95
2024-02-20T16:00:44.277Z,2.03
2024-02-20T16:03:12.687Z,2.00
2024-02-20T16:05:40.781Z,1.33
2024-02-20T16:08:09.862Z,1.85
2024-02-20T16:10:37.115Z,2.00
2024-02-20T16:13:05.366Z,2.10
2024-02-20T16:15:34.958Z,1.90
2024-02-20T16:18:04.656Z,1.45
2024-02-20T16:20:31.651Z,1.75
2024-02-20T16:23:00.402Z,1.75
2024-02-20T16:25:27.734Z,1.85
2024-02-20T16:27:55.184Z,2.20
2024-02-20T16:30:22.268Z,1.55
2024-02-20T16:32:49.283Z,1.77
2024-02-20T16:35:37.653Z,2.00
2024-02-20T16:38:04.669Z,2.05
2024-02-20T16:40:31.505Z,2.50
2024-02-20T16:42:58.256Z,1.83
2024-02-20T16:45:24.827Z,1.90
2024-02-20T16:47:51.835Z,1.95
2024-02-20T16:50:19.541Z,2.30
2024-02-20T16:52:46.322Z,2.10
2024-02-20T16:55:13.025Z,1.77
2024-02-20T16:57:39.812Z,2.13
2024-02-20T17:00:08.094Z,2.38
2024-02-20T17:02:34.701Z,1.95
2024-02-20T17:05:12.941Z,2.20
2024-02-20T17:07:40.121Z,2.47
2024-02-20T17:10:08.484Z,2.55
2024-02-20T17:12:35.873Z,2.42
2024-02-20T17:15:05.798Z,2.17
2024-02-20T17:17:32.477Z,2.00
2024-02-20T17:19:59.279Z,1.95
2024-02-20T17:22:26.014Z,2.22
2024-02-20T17:24:52.793Z,1.73
2024-02-20T17:27:19.419Z,2.92
2024-02-20T17:29:46.123Z,2.47
2024-02-20T17:32:12.768Z,2.30
2024-02-20T17:34:39.657Z,2.55
2024-02-20T17:37:10.310Z,2.08
2024-02-20T17:39:40.181Z,2.40
2024-02-20T17:42:07.164Z,2.13
2024-02-20T17:44:33.783Z,2.33
2024-02-20T17:47:02.072Z,2.30
2024-02-20T17:49:29.133Z,2.53
2024-02-20T17:51:56.319Z,2.55
2024-02-20T17:54:22.992Z,2.22
2024-02-20T17:56:49.583Z,2.50
2024-02-20T17:59:16.236Z,2.20
2024-02-20T18:01:43.097Z,3.28
2024-02-20T18:04:09.914Z,2.20
2024-02-20T18:06:36.723Z,2.47
2024-02-20T18:09:03.354Z,2.70
2024-02-20T18:11:29.973Z,2.65
2024-02-20T18:13:56.945Z,2.65
2024-02-20T18:16:23.726Z,3.10
2024-02-20T18:18:50.611Z,3.30
2024-02-20T18:21:17.471Z,2.67
2024-02-20T18:23:44.534Z,2.83
2024-02-20T18:26:11.107Z,3.25
2024-02-20T18:28:38.192Z,2.95
2024-02-20T18:31:05.148Z,3.40
2024-02-20T18:33:32.047Z,3.00
2024-02-20T18:36:00.807Z,3.10
2024-02-20T18:38:28.085Z,3.03
2024-02-20T18:40:55.601Z,3.10
2024-02-20T18:43:23.707Z,3.22
2024-02-20T18:45:52.162Z,2.53
2024-02-20T18:48:18.837Z,2.60
2024-02-20T18:50:45.502Z,3.15
2024-02-20T18:53:12.140Z,3.72
2024-02-20T18:55:39.101Z,2.63
2024-02-20T18:58:07.627Z,2.95
2024-02-20T19:00:34.416Z,3.15
2024-02-20T19:03:01.318Z,3.00
2024-02-20T19:05:27.999Z,2.78
2024-02-20T19:07:54.689Z,2.28
2024-02-20T19:10:21.388Z,2.70
2024-02-20T19:12:48.012Z,1.83
2024-02-20T19:15:14.878Z,2.60
2024-02-20T19:17:41.626Z,2.05
2024-02-20T19:20:10.949Z,1.80
2024-02-20T19:22:37.951Z,2.50
2024-02-20T19:25:05.220Z,2.33
2024-02-20T19:27:31.888Z,2.35
2024-02-20T19:29:58.585Z,2.55
2024-02-20T19:32:28.230Z,2.42
2024-02-20T19:34:54.982Z,1.90
2024-02-20T19:37:24.004Z,2.10
2024-02-20T19:39:50.718Z,2.30
2024-02-20T19:42:17.413Z,2.15
2024-02-20T19:44:44.051Z,2.13
2024-02-20T19:47:13.895Z,2.45
2024-02-20T19:49:44.778Z,2.40
2024-02-20T19:52:11.753Z,3.03
2024-02-20T19:54:38.747Z,2.20
2024-02-20T19:57:05.718Z,2.20
2024-02-20T19:59:32.378Z,2.28
2024-02-20T20:01:59.051Z,2.38
2024-02-20T20:04:25.824Z,2.80
2024-02-20T20:06:52.385Z,2.53
2024-02-20T20:09:20.334Z,2.45
2024-02-20T20:11:47.050Z,2.88
2024-02-20T20:14:13.824Z,1.48
2024-02-20T20:16:40.539Z,3.20
2024-02-20T20:19:10.156Z,2.58
2024-02-20T20:21:37.464Z,2.50
2024-02-20T20:24:13.802Z,3.20
2024-02-20T20:26:45.696Z,2.63
2024-02-20T20:29:12.385Z,2.95
2024-02-20T20:31:40.645Z,2.55
2024-02-20T20:34:13.910Z,2.70
2024-02-20T20:36:44.536Z,2.60
2024-02-20T20:39:11.633Z,2.65
2024-02-20T20:41:38.857Z,2.85
2024-02-20T20:44:05.872Z,2.88
2024-02-20T20:46:32.798Z,3.08
2024-02-20T20:49:00.093Z,2.72
2024-02-20T20:51:26.884Z,2.85
2024-02-20T20:53:53.476Z,3.03
2024-02-20T20:56:20.127Z,2.35
2024-02-20T20:58:46.836Z,3.47
2024-02-20T21:01:13.578Z,2.83
2024-02-20T21:03:40.255Z,3.28
2024-02-20T21:06:07.022Z,2.95
2024-02-20T21:08:34.092Z,3.40
2024-02-20T21:11:00.912Z,2.92
2024-02-20T21:13:27.727Z,3.20
2024-02-20T21:15:54.377Z,2.53
2024-02-20T21:18:21.116Z,3.03
2024-02-20T21:20:48.085Z,3.60
2024-02-20T21:23:18.618Z,4.05
2024-02-20T21:25:47.580Z,3.38
2024-02-20T21:28:14.545Z,3.33
2024-02-20T21:30:42.744Z,3.85
2024-02-20T21:33:09.977Z,3.90
2024-02-20T21:35:39.340Z,3.38
2024-02-20T21:40:34.479Z,3.72
2024-02-20T21:43:01.122Z,3.25
2024-02-20T21:45:27.689Z,4.40
2024-02-20T21:47:56.084Z,2.75
2024-02-20T21:50:23.134Z,3.72
2024-02-20T21:52:51.782Z,3.45
2024-02-20T21:55:18.735Z,3.47
2024-02-20T21:57:45.331Z,3.97
2024-02-20T22:00:12.612Z,3.90
2024-02-20T22:02:39.370Z,4.28
2024-02-20T22:05:06.142Z,3.90
2024-02-20T22:07:32.891Z,5.00
2024-02-20T22:10:00.904Z,4.07
2024-02-20T22:12:27.456Z,4.25
2024-02-20T22:14:54.028Z,4.85
2024-02-20T22:17:20.634Z,4.63
2024-02-20T22:19:48.036Z,4.88
2024-02-20T22:22:14.792Z,4.53
2024-02-20T22:24:41.420Z,4.40
2024-02-20T22:27:07.986Z,4.88
2024-02-20T22:29:34.585Z,3.60
2024-02-20T22:32:01.312Z,4.68
2024-02-20T22:34:28.066Z,4.80
2024-02-20T22:36:54.788Z,5.47
2024-02-20T22:39:21.461Z,5.63
2024-02-20T22:41:51.426Z,5.05
2024-02-20T22:44:18.325Z,5.80
2024-02-20T22:46:45.032Z,5.15
2024-02-20T22:49:11.846Z,5.47
2024-02-20T22:51:38.657Z,5.55
2024-02-20T22:54:05.479Z,5.15
2024-02-20T22:56:32.213Z,5.50
2024-02-20T22:58:58.845Z,5.93
2024-02-20T23:01:25.608Z,5.22
2024-02-20T23:03:52.296Z,5.32
2024-02-20T23:06:19.130Z,6.40
2024-02-20T23:08:45.821Z,5.80
2024-02-20T23:11:12.426Z,5.72
2024-02-20T23:13:39.183Z,5.43
2024-02-20T23:16:06.067Z,5.63
2024-02-20T23:18:32.817Z,5.70
2024-02-20T23:20:59.478Z,5.63
2024-02-20T23:23:26.188Z,4.43
2024-02-20T23:25:52.925Z,5.15
2024-02-20T23:28:20.107Z,4.70
2024-02-20T23:30:46.732Z,5.65
2024-02-20T23:33:13.539Z,5.22
2024-02-20T23:35:40.126Z,5.13
2024-02-20T23:38:06.707Z,5.20
2024-02-20T23:40:33.427Z,4.93
2024-02-20T23:42:59.994Z,5.28
2024-02-20T23:45:26.760Z,5.45
2024-02-20T23:47:53.406Z,5.10
2024-02-20T23:50:20.004Z,5.13
2024-02-20T23:52:46.685Z,5.28
2024-02-20T23:55:13.395Z,6.03
2024-02-20T23:57:39.983Z,5.60
